createdAt,value
2023-04-29T00:00:44.041Z,11.80
2023-04-29T00:03:10.907Z,12.57
2023-04-29T00:05:37.927Z,10.30
2023-04-29T00:08:05.765Z,11.32
2023-04-29T00:10:32.653Z,11.77
2023-04-29T00:12:59.386Z,9.30
2023-04-29T00:15:26.149Z,16.38
2023-04-29T00:17:53.133Z,10.90
2023-04-29T00:20:19.876Z,10.95
2023-04-29T00:22:46.899Z,14.23
2023-04-29T00:25:13.732Z,10.55
2023-04-29T00:27:40.939Z,13.60
2023-04-29T00:30:08.593Z,12.73
2023-04-29T00:32:35.317Z,12.48
2023-04-29T00:35:02.387Z,12.07
2023-04-29T00:37:29.045Z,15.85
2023-04-29T00:39:55.680Z,10.20
2023-04-29T00:42:22.504Z,14.27
2023-04-29T00:44:49.111Z,12.10
2023-04-29T00:47:15.777Z,9.50
2023-04-29T00:49:42.485Z,11.35
2023-04-29T00:52:11.836Z,10.70
2023-04-29T00:54:39.276Z,9.70
2023-04-29T00:57:07.310Z,11.48
2023-04-29T00:59:34.587Z,12.80
2023-04-29T01:02:04.177Z,8.95
2023-04-29T01:04:31.448Z,11.30
2023-04-29T01:07:17.160Z,11.60
2023-04-29T01:10:04.107Z,9.32
2023-04-29T01:12:37.083Z,11.27
2023-04-29T01:15:21.501Z,11.82
2023-04-29T01:18:14.510Z,10.15
2023-04-29T01:20:42.056Z,11.38
2023-04-29T01:23:08.714Z,10.38
2023-04-29T01:25:35.666Z,11.30
2023-04-29T01:28:13.174Z,13.63
2023-04-29T01:30:50.538Z,9.88
2023-04-29T01:33:33.081Z,10.75
2023-04-29T01:36:32.209Z,12.68
2023-04-29T01:39:31.556Z,12.23
2023-04-29T01:42:14.822Z,11.23
2023-04-29T01:44:42.549Z,10.02
2023-04-29T01:47:13.254Z,11.50
2023-04-29T01:49:39.921Z,9.30
2023-04-29T01:52:07.477Z,14.55
2023-04-29T01:54:36.984Z,9.88
2023-04-29T01:57:03.820Z,11.60
2023-04-29T01:59:31.752Z,12.68
2023-04-29T02:01:58.950Z,10.00
2023-04-29T02:04:26.089Z,11.00
2023-04-29T02:06:52.868Z,11.55
2023-04-29T02:09:19.767Z,12.20
2023-04-29T02:11:46.354Z,11.20
2023-04-29T02:14:13.013Z,10.63
2023-04-29T02:16:40.205Z,13.18
2023-04-29T02:19:06.860Z,12.73
2023-04-29T02:21:35.144Z,12.60
2023-04-29T02:24:02.528Z,13.25
2023-04-29T02:26:29.184Z,14.02
2023-04-29T02:28:57.337Z,12.98
2023-04-29T02:31:23.960Z,11.18
2023-04-29T02:33:50.866Z,18.83
2023-04-29T02:36:18.361Z,11.65
2023-04-29T02:38:45.102Z,12.27
2023-04-29T02:41:17.365Z,11.30
2023-04-29T02:43:44.705Z,13.93
2023-04-29T02:46:11.657Z,12.95
2023-04-29T02:48:38.388Z,16.13
2023-04-29T02:51:05.147Z,16.10
2023-04-29T02:53:31.791Z,12.55
2023-04-29T02:55:58.457Z,16.02
2023-04-29T02:58:25.245Z,13.68
2023-04-29T03:00:51.922Z,15.68
2023-04-29T03:03:18.763Z,13.95
2023-04-29T03:05:45.793Z,15.50
2023-04-29T03:08:12.430Z,15.48
2023-04-29T03:10:41.372Z,16.67
2023-04-29T03:13:08.627Z,16.67
2023-04-29T03:15:35.430Z,15.57
2023-04-29T03:18:04.224Z,14.07
2023-04-29T03:20:30.893Z,16.85
2023-04-29T03:22:57.955Z,20.20
2023-04-29T03:25:24.591Z,16.50
2023-04-29T03:27:51.575Z,18.50
2023-04-29T03:30:18.235Z,16.85
2023-04-29T03:32:44.929Z,15.45
2023-04-29T03:35:14.117Z,18.80
2023-04-29T03:37:44.526Z,17.80
2023-04-29T03:40:12.312Z,16.53
2023-04-29T03:42:38.934Z,15.82
2023-04-29T03:45:06.579Z,19.23
2023-04-29T03:47:33.506Z,18.08
2023-04-29T03:50:00.193Z,22.10
2023-04-29T03:52:27.201Z,19.25
2023-04-29T03:54:53.834Z,19.95
2023-04-29T03:57:20.641Z,21.13
2023-04-29T03:59:50.555Z,19.10
2023-04-29T04:02:17.568Z,24.30
2023-04-29T04:04:44.538Z,20.88
2023-04-29T04:07:11.846Z,22.95
2023-04-29T04:09:38.533Z,19.77
2023-04-29T04:12:06.500Z,21.73
2023-04-29T04:14:33.231Z,22.98
2023-04-29T04:16:59.974Z,20.70
2023-04-29T04:19:27.256Z,21.80
2023-04-29T04:21:53.988Z,24.05
2023-04-29T04:24:20.965Z,20.52
2023-04-29T04:26:47.585Z,24.35
2023-04-29T04:29:14.242Z,23.27
2023-04-29T04:31:41.092Z,22.08
2023-04-29T04:34:07.783Z,20.83
2023-04-29T04:36:34.419Z,22.10
2023-04-29T04:39:01.111Z,22.45
2023-04-29T04:41:27.849Z,24.63
2023-04-29T04:43:54.569Z,21.80
2023-04-29T04:46:21.296Z,26.02
2023-04-29T04:48:48.038Z,24.33
2023-04-29T04:51:14.675Z,24.40
2023-04-29T04:53:41.328Z,24.77
2023-04-29T04:56:08.546Z,22.95
2023-04-29T04:58:35.239Z,24.25
2023-04-29T05:01:02.697Z,25.27
2023-04-29T05:03:29.497Z,26.02
2023-04-29T05:06:00.364Z,29.42
2023-04-29T05:08:27.458Z,25.33
2023-04-29T05:10:54.592Z,27.60
2023-04-29T05:13:21.517Z,25.90
2023-04-29T05:15:48.281Z,27.23
2023-04-29T05:18:14.899Z,25.55
2023-04-29T05:20:41.557Z,26.67
2023-04-29T05:23:08.929Z,28.55
2023-04-29T05:25:35.768Z,30.52
2023-04-29T05:28:03.440Z,25.40
2023-04-29T05:30:30.116Z,25.63
2023-04-29T05:32:56.838Z,27.58
2023-04-29T05:35:23.636Z,28.88
2023-04-29T05:37:50.302Z,30.60
2023-04-29T05:40:17.104Z,29.75
2023-04-29T05:42:43.770Z,30.70
2023-04-29T05:45:10.807Z,30.60
2023-04-29T05:47:37.741Z,28.08
2023-04-29T05:50:04.789Z,29.30
2023-04-29T05:52:31.421Z,39.42
2023-04-29T05:54:58.193Z,32.85
2023-04-29T05:57:24.931Z,31.15
2023-04-29T05:59:51.782Z,32.25
2023-04-29T06:02:18.572Z,34.83
2023-04-29T06:04:47.834Z,30.67
2023-04-29T06:07:14.753Z,34.53
2023-04-29T06:09:42.792Z,36.05
2023-04-29T06:12:09.671Z,38.35
2023-04-29T06:14:36.505Z,36.40
2023-04-29T06:17:03.851Z,50.20
2023-04-29T06:19:32.539Z,42.97
2023-04-29T06:21:59.446Z,44.30
2023-04-29T06:24:26.122Z,50.03
2023-04-29T06:26:52.824Z,44.00
2023-04-29T06:29:19.437Z,38.75
2023-04-29T06:31:46.139Z,44.03
2023-04-29T06:34:13.187Z,42.17
2023-04-29T06:36:40.173Z,42.10
2023-04-29T06:39:07.123Z,41.35
2023-04-29T06:41:34.825Z,42.78
2023-04-29T06:44:01.580Z,41.53
2023-04-29T06:46:29.169Z,43.22
2023-04-29T06:48:55.913Z,43.67
2023-04-29T06:51:22.661Z,39.17
2023-04-29T06:53:49.324Z,48.28
2023-04-29T06:56:17.154Z,42.05
2023-04-29T06:58:43.936Z,50.45
2023-04-29T07:01:11.024Z,44.40
2023-04-29T07:03:38.088Z,50.17
2023-04-29T07:06:05.167Z,45.50
2023-04-29T07:08:32.259Z,48.72
2023-04-29T07:10:59.353Z,48.05
2023-04-29T07:13:26.183Z,47.15
2023-04-29T07:15:52.909Z,49.22
2023-04-29T07:18:19.584Z,46.70
2023-04-29T07:20:47.866Z,47.55
2023-04-29T07:23:15.072Z,44.30
2023-04-29T07:25:41.854Z,49.38
2023-04-29T07:28:09.277Z,43.47
2023-04-29T07:30:36.316Z,44.08
2023-04-29T07:33:04.352Z,51.72
2023-04-29T07:35:31.714Z,44.83
2023-04-29T07:37:58.419Z,47.80
2023-04-29T07:40:25.288Z,45.67
2023-04-29T07:42:51.987Z,43.25
2023-04-29T07:45:18.709Z,43.58
2023-04-29T07:47:45.984Z,44.42
2023-04-29T07:50:12.936Z,42.45
2023-04-29T07:52:39.627Z,42.83
2023-04-29T07:55:06.728Z,45.10
2023-04-29T07:57:33.423Z,45.83
2023-04-29T08:00:00.191Z,39.50
2023-04-29T08:02:27.120Z,41.63
2023-04-29T08:04:56.037Z,40.00
2023-04-29T08:07:23.295Z,37.70
2023-04-29T08:09:50.079Z,25.70
2023-04-29T08:12:16.762Z,27.48
2023-04-29T08:14:43.543Z,28.25
2023-04-29T08:17:10.487Z,27.48
2023-04-29T08:19:37.140Z,26.90
2023-04-29T08:22:04.405Z,28.30
2023-04-29T08:24:31.253Z,25.98
2023-04-29T08:26:59.322Z,22.73
2023-04-29T08:29:26.186Z,26.52
2023-04-29T08:31:53.115Z,24.67
2023-04-29T08:34:19.824Z,23.05
2023-04-29T08:36:46.479Z,23.40
2023-04-29T08:39:13.103Z,23.88
2023-04-29T08:41:39.866Z,26.27
2023-04-29T08:44:07.048Z,31.95
2023-04-29T08:46:33.823Z,21.23
2023-04-29T08:49:03.935Z,18.13
2023-04-29T08:51:32.368Z,19.92
2023-04-29T08:53:59.059Z,15.88
2023-04-29T08:56:28.042Z,16.88
2023-04-29T08:58:58.202Z,14.05
2023-04-29T09:01:28.900Z,13.23
2023-04-29T09:04:15.299Z,13.15
2023-04-29T09:06:41.992Z,12.13
2023-04-29T09:09:09.644Z,15.80
2023-04-29T09:11:37.454Z,12.55
2023-04-29T09:14:08.271Z,16.30
2023-04-29T09:16:37.383Z,15.02
2023-04-29T09:19:04.091Z,16.25
2023-04-29T09:21:33.908Z,18.17
2023-04-29T09:24:02.049Z,19.42
2023-04-29T09:26:42.950Z,21.98
2023-04-29T09:29:13.853Z,21.40
2023-04-29T09:31:42.269Z,22.27
2023-04-29T09:34:09.954Z,21.80
2023-04-29T09:36:38.177Z,23.45
2023-04-29T09:39:11.047Z,26.83
2023-04-29T09:41:40.279Z,25.33
2023-04-29T09:44:08.533Z,26.57
2023-04-29T09:46:36.863Z,24.35
2023-04-29T09:49:07.250Z,25.33
2023-04-29T09:51:41.576Z,23.90
2023-04-29T09:54:21.761Z,20.58
2023-04-29T09:59:19.709Z,21.65
2023-04-29T10:01:49.625Z,21.20
2023-04-29T10:04:17.844Z,23.20
2023-04-29T10:06:46.670Z,23.48
2023-04-29T10:09:18.155Z,28.42
2023-04-29T10:11:46.162Z,31.75
2023-04-29T10:14:14.890Z,35.95
2023-04-29T10:17:04.007Z,37.75
2023-04-29T10:19:38.286Z,43.95
2023-04-29T10:22:12.279Z,43.45
2023-04-29T10:24:40.173Z,42.20
2023-04-29T10:27:13.127Z,46.33
2023-04-29T10:29:41.683Z,41.25
2023-04-29T10:32:12.779Z,49.88
2023-04-29T10:34:42.303Z,57.85
2023-04-29T10:37:12.610Z,59.60
2023-04-29T10:42:45.898Z,60.55
2023-04-29T10:45:31.736Z,58.25
2023-04-29T10:48:10.570Z,58.63
2023-04-29T10:50:45.487Z,68.07
2023-04-29T10:53:12.163Z,68.80
2023-04-29T10:55:38.988Z,69.50
2023-04-29T10:58:06.528Z,70.15
2023-04-29T11:00:35.007Z,72.35
2023-04-29T11:03:05.227Z,68.18
2023-04-29T11:05:36.553Z,69.22
2023-04-29T11:08:24.298Z,68.63
2023-04-29T11:11:00.507Z,73.47
2023-04-29T11:13:29.147Z,67.65
2023-04-29T11:16:11.376Z,70.15
2023-04-29T11:19:05.093Z,64.88
2023-04-29T11:21:33.530Z,68.22
2023-04-29T11:24:01.475Z,68.45
2023-04-29T11:26:28.168Z,62.60
2023-04-29T11:28:56.449Z,63.88
2023-04-29T11:31:33.318Z,62.05
2023-04-29T11:34:00.652Z,62.78
2023-04-29T11:36:27.610Z,64.40
2023-04-29T11:38:54.428Z,57.17
2023-04-29T11:41:22.456Z,54.47
2023-04-29T11:43:57.570Z,49.05
2023-04-29T11:46:25.154Z,45.58
2023-04-29T11:48:51.858Z,44.97
2023-04-29T11:51:19.876Z,47.50
2023-04-29T11:53:46.858Z,43.65
2023-04-29T11:56:13.506Z,50.42
2023-04-29T11:58:41.961Z,44.78
2023-04-29T12:01:08.693Z,48.10
2023-04-29T12:03:36.735Z,44.40
2023-04-29T12:06:03.843Z,47.95
2023-04-29T12:08:31.175Z,41.47
2023-04-29T12:10:59.536Z,36.65
2023-04-29T12:13:30.634Z,37.67
2023-04-29T12:15:58.832Z,34.20
2023-04-29T12:18:27.666Z,32.72
2023-04-29T12:20:58.326Z,41.83
2023-04-29T12:23:28.483Z,34.88
2023-04-29T12:26:00.516Z,29.10
2023-04-29T12:28:27.639Z,31.05
2023-04-29T12:30:54.930Z,27.45
2023-04-29T12:33:27.225Z,25.70
2023-04-29T12:35:57.482Z,27.00
2023-04-29T12:40:58.418Z,23.95
2023-04-29T12:43:29.299Z,23.23
2023-04-29T12:46:02.680Z,24.83
2023-04-29T12:48:33.797Z,23.90
2023-04-29T12:51:01.883Z,25.05
2023-04-29T12:53:32.156Z,23.50
2023-04-29T12:55:59.041Z,20.00
2023-04-29T12:58:29.400Z,21.77
2023-04-29T13:00:56.370Z,24.60
2023-04-29T13:03:23.993Z,18.98
2023-04-29T13:05:53.632Z,21.33
2023-04-29T13:08:21.265Z,21.20
2023-04-29T13:10:48.198Z,24.23
2023-04-29T13:13:14.863Z,20.08
2023-04-29T13:15:41.599Z,18.73
2023-04-29T13:18:08.478Z,21.38
2023-04-29T13:20:41.136Z,20.77
2023-04-29T13:23:09.604Z,22.83
2023-04-29T13:25:37.595Z,20.17
2023-04-29T13:28:05.687Z,22.58
2023-04-29T13:30:33.047Z,25.75
2023-04-29T13:33:07.915Z,24.73
2023-04-29T13:35:40.015Z,18.30
2023-04-29T13:38:06.938Z,21.80
2023-04-29T13:40:38.359Z,19.13
2023-04-29T13:43:09.494Z,17.80
2023-04-29T13:45:39.334Z,18.47
2023-04-29T13:48:20.036Z,15.50
2023-04-29T13:58:41.038Z,14.00
2023-04-29T14:01:54.736Z,13.98
2023-04-29T14:04:01.609Z,14.63
2023-04-29T14:06:28.552Z,15.07
2023-04-29T14:08:55.315Z,13.63
2023-04-29T14:11:22.043Z,14.60
2023-04-29T14:13:48.641Z,13.52
2023-04-29T14:16:15.426Z,14.38
2023-04-29T14:18:42.134Z,14.68
2023-04-29T14:21:08.836Z,14.10
2023-04-29T14:23:35.882Z,12.93
2023-04-29T14:26:22.288Z,13.32
2023-04-29T14:28:49.508Z,15.77
2023-04-29T14:31:18.081Z,12.75
2023-04-29T14:33:44.668Z,12.52
2023-04-29T14:36:11.380Z,11.43
2023-04-29T14:38:38.037Z,14.00
2023-04-29T14:41:04.843Z,14.10
2023-04-29T14:43:31.477Z,12.77
2023-04-29T14:45:58.569Z,14.80
2023-04-29T14:48:25.285Z,12.23
2023-04-29T14:50:51.925Z,11.98
2023-04-29T14:53:18.738Z,11.82
2023-04-29T14:55:45.545Z,13.63
2023-04-29T14:58:12.274Z,18.42
2023-04-29T15:00:38.870Z,13.95
2023-04-29T15:03:05.667Z,10.88
2023-04-29T15:05:32.417Z,16.25
2023-04-29T15:08:01.423Z,14.75
2023-04-29T15:10:28.507Z,10.95
2023-04-29T15:12:55.300Z,13.20
2023-04-29T15:15:23.305Z,11.70
2023-04-29T15:17:50.176Z,13.27
2023-04-29T15:20:17.000Z,9.88
2023-04-29T15:22:43.710Z,9.93
2023-04-29T15:25:10.638Z,9.60
2023-04-29T15:27:38.125Z,11.40
2023-04-29T15:30:05.849Z,12.88
2023-04-29T15:32:32.767Z,10.95
2023-04-29T15:35:01.166Z,10.13
2023-04-29T15:37:28.927Z,11.80
2023-04-29T15:39:56.503Z,10.57
2023-04-29T15:42:23.258Z,12.05
2023-04-29T15:44:50.159Z,11.63
2023-04-29T15:47:16.822Z,15.18
2023-04-29T15:49:43.927Z,13.55
2023-04-29T15:52:10.850Z,9.27
2023-04-29T15:54:37.522Z,9.55
2023-04-29T15:57:04.407Z,13.38
2023-04-29T15:59:31.632Z,10.20
2023-04-29T16:01:58.600Z,10.30
2023-04-29T16:04:25.290Z,12.23
2023-04-29T16:06:52.812Z,11.15
2023-04-29T16:09:19.592Z,9.75
2023-04-29T16:11:46.236Z,11.05
2023-04-29T16:14:12.882Z,13.75
2023-04-29T16:16:39.560Z,10.20
2023-04-29T16:19:06.367Z,8.77
2023-04-29T16:21:34.537Z,13.88
2023-04-29T16:24:01.193Z,10.63
2023-04-29T16:26:28.293Z,13.23
2023-04-29T16:28:54.883Z,13.98
2023-04-29T16:31:21.753Z,16.67
2023-04-29T16:33:48.421Z,9.35
2023-04-29T16:36:15.082Z,11.70
2023-04-29T16:38:41.706Z,10.07
2023-04-29T16:41:08.393Z,13.40
2023-04-29T16:43:35.183Z,13.70
2023-04-29T16:46:01.831Z,27.42
2023-04-29T16:48:28.918Z,14.90
2023-04-29T16:50:55.625Z,21.23
2023-04-29T16:53:22.249Z,11.40
2023-04-29T16:55:50.662Z,9.63
2023-04-29T16:58:17.476Z,9.82
2023-04-29T17:00:44.222Z,14.07
2023-04-29T17:03:11.315Z,9.48
2023-04-29T17:05:38.796Z,10.70
2023-04-29T17:08:05.664Z,9.95
2023-04-29T17:10:32.517Z,8.45
2023-04-29T17:12:59.482Z,9.45
2023-04-29T17:15:26.400Z,11.27
2023-04-29T17:17:55.091Z,7.97
2023-04-29T17:20:21.882Z,7.40
2023-04-29T17:22:48.759Z,9.10
2023-04-29T17:25:16.250Z,11.40
2023-04-29T17:27:46.164Z,10.20
2023-04-29T17:30:13.414Z,12.48
2023-04-29T17:32:40.250Z,16.58
2023-04-29T17:35:08.803Z,9.90
2023-04-29T17:37:35.782Z,13.07
2023-04-29T17:40:02.953Z,11.98
2023-04-29T17:42:29.667Z,13.15
2023-04-29T17:44:56.334Z,11.05
2023-04-29T17:47:23.384Z,13.50
2023-04-29T17:49:52.060Z,11.52
2023-04-29T17:52:21.369Z,12.82
2023-04-29T17:54:48.828Z,10.02
2023-04-29T17:57:15.806Z,13.52
2023-04-29T17:59:42.414Z,9.88
2023-04-29T18:02:09.046Z,11.50
2023-04-29T18:04:37.397Z,10.55
2023-04-29T18:07:04.252Z,12.00
2023-04-29T18:09:31.035Z,10.75
2023-04-29T18:11:57.653Z,9.38
2023-04-29T18:14:24.607Z,9.15
2023-04-29T18:16:51.675Z,10.02
2023-04-29T18:19:18.374Z,8.43
2023-04-29T18:21:45.006Z,12.55
2023-04-29T18:24:11.816Z,8.85
2023-04-29T18:26:38.501Z,8.88
2023-04-29T18:29:05.229Z,9.95
2023-04-29T18:31:31.846Z,11.30
2023-04-29T18:33:58.635Z,10.13
2023-04-29T18:36:25.520Z,8.02
2023-04-29T18:38:52.131Z,10.48
2023-04-29T18:41:18.870Z,12.60
2023-04-29T18:43:45.591Z,9.45
2023-04-29T18:46:12.206Z,8.63
2023-04-29T18:48:40.696Z,8.25
2023-04-29T18:51:07.400Z,10.15
2023-04-29T18:53:34.395Z,6.80
2023-04-29T18:56:01.038Z,6.28
2023-04-29T18:58:27.723Z,6.38
2023-04-29T19:00:54.747Z,7.30
2023-04-29T19:03:21.877Z,10.77
2023-04-29T19:05:48.590Z,7.32
2023-04-29T19:08:16.498Z,7.95
2023-04-29T19:10:44.474Z,9.02
2023-04-29T19:13:11.637Z,8.70
2023-04-29T19:15:38.503Z,8.57
2023-04-29T19:18:05.236Z,10.43
2023-04-29T19:20:32.339Z,9.63
2023-04-29T19:22:59.092Z,8.80
2023-04-29T19:25:28.585Z,6.50
2023-04-29T19:27:55.225Z,11.00
2023-04-29T19:30:22.128Z,7.22
2023-04-29T19:32:49.118Z,6.22
2023-04-29T19:35:16.090Z,6.65
2023-04-29T19:37:42.842Z,9.05
2023-04-29T19:40:10.893Z,9.77
2023-04-29T19:42:38.952Z,9.63
2023-04-29T19:45:09.440Z,10.00
2023-04-29T19:47:36.356Z,11.35
2023-04-29T19:50:03.266Z,10.43
2023-04-29T19:52:30.078Z,11.57
2023-04-29T19:54:57.259Z,11.10
2023-04-29T19:57:23.984Z,13.40
2023-04-29T19:59:50.678Z,14.32
2023-04-29T20:02:17.403Z,14.35
2023-04-29T20:04:44.047Z,13.32
2023-04-29T20:07:10.725Z,12.88
2023-04-29T20:09:37.749Z,15.95
2023-04-29T20:12:04.690Z,11.60
2023-04-29T20:14:32.777Z,11.38
2023-04-29T20:17:00.562Z,13.25
2023-04-29T20:19:27.643Z,14.55
2023-04-29T20:21:54.274Z,12.32
2023-04-29T20:24:21.051Z,13.65
2023-04-29T20:26:47.726Z,15.00
2023-04-29T20:29:14.462Z,11.98
2023-04-29T20:31:41.245Z,11.35
2023-04-29T20:34:08.064Z,11.90
2023-04-29T20:36:34.706Z,16.42
2023-04-29T20:39:01.509Z,12.90
2023-04-29T20:41:28.989Z,9.80
2023-04-29T20:43:56.134Z,12.00
2023-04-29T20:46:24.601Z,16.30
2023-04-29T20:48:53.041Z,12.65
2023-04-29T20:51:19.697Z,11.98
2023-04-29T20:53:46.769Z,13.35
2023-04-29T20:56:13.804Z,15.25
2023-04-29T20:58:40.592Z,13.50
2023-04-29T21:01:07.927Z,16.15
2023-04-29T21:03:34.806Z,10.88
2023-04-29T21:06:01.572Z,14.20
2023-04-29T21:08:28.323Z,15.52
2023-04-29T21:10:55.009Z,17.20
2023-04-29T21:13:21.681Z,15.50
2023-04-29T21:15:48.500Z,15.30
2023-04-29T21:18:15.297Z,12.73
2023-04-29T21:20:41.962Z,14.70
2023-04-29T21:23:08.817Z,14.60
2023-04-29T21:25:35.476Z,13.98
2023-04-29T21:28:02.250Z,14.63
2023-04-29T21:30:28.914Z,13.52
2023-04-29T21:32:56.317Z,15.40
2023-04-29T21:35:22.988Z,14.65
2023-04-29T21:37:49.602Z,13.88
2023-04-29T21:40:16.681Z,14.35
2023-04-29T21:42:43.934Z,16.67
2023-04-29T21:45:12.714Z,11.70
2023-04-29T21:47:39.518Z,14.57
2023-04-29T21:50:07.940Z,12.30
2023-04-29T21:52:35.294Z,12.00
2023-04-29T21:55:03.978Z,14.93
2023-04-29T21:57:42.702Z,12.00
2023-04-29T22:00:20.739Z,14.75
2023-04-29T22:02:47.608Z,13.05
2023-04-29T22:05:14.270Z,14.27
2023-04-29T22:07:40.970Z,13.50
2023-04-29T22:10:08.073Z,15.13
2023-04-29T22:12:34.765Z,9.93
2023-04-29T22:15:01.433Z,13.98
2023-04-29T22:17:28.131Z,12.52
2023-04-29T22:19:54.997Z,13.50
2023-04-29T22:22:22.007Z,12.05
2023-04-29T22:24:48.761Z,11.63
2023-04-29T22:27:15.912Z,12.90
2023-04-29T22:29:43.129Z,14.48
2023-04-29T22:32:09.980Z,12.23
2023-04-29T22:34:36.942Z,12.20
2023-04-29T22:37:03.593Z,15.05
2023-04-29T22:39:30.298Z,14.52
2023-04-29T22:41:56.979Z,15.38
2023-04-29T22:44:23.582Z,18.15
2023-04-29T22:46:50.380Z,14.98
2023-04-29T22:49:17.136Z,13.30
2023-04-29T22:51:43.734Z,14.30
2023-04-29T22:54:10.499Z,13.27
2023-04-29T22:56:37.178Z,13.35
2023-04-29T22:59:03.798Z,15.57
2023-04-29T23:01:30.645Z,15.75
2023-04-29T23:03:58.021Z,12.40
2023-04-29T23:06:24.753Z,14.07
2023-04-29T23:08:52.481Z,15.02
2023-04-29T23:11:19.304Z,11.20
2023-04-29T23:13:45.962Z,10.32
2023-04-29T23:16:12.685Z,12.05
2023-04-29T23:18:39.550Z,12.23
2023-04-29T23:21:07.218Z,11.00
2023-04-29T23:23:34.036Z,11.95
2023-04-29T23:26:00.708Z,10.02
2023-04-29T23:28:27.369Z,12.20
2023-04-29T23:30:54.610Z,11.50
2023-04-29T23:33:21.304Z,10.45
2023-04-29T23:35:52.367Z,11.30
2023-04-29T23:38:19.792Z,10.25
2023-04-29T23:40:46.822Z,10.23
2023-04-29T23:43:15.071Z,9.68
2023-04-29T23:45:45.110Z,8.40
2023-04-29T23:50:39.071Z,10.68
2023-04-29T23:53:05.749Z,10.30
2023-04-29T23:55:33.487Z,11.02
2023-04-29T23:58:00.365Z,9.77
